Time;durP1;ratioP1;P1;durP2;ratioP2;P2;SDS_P1;SDS_P2;PMS_P1;PMS_P2;Temp;Humidity;BMP_temperature;BMP_pressure;BME280_temperature;BME280_humidity;BME280_pressure;Samples;Min_cycle;Max_cycle;Signal;HPM_P1;HPM_P2
2022/02/02 00:00:35;;;;;;;2.80;1.50;;;3.40;99.90;;;;;;5015157;28;20026;-87
2022/02/02 00:03:08;;;;;;;2.63;1.70;;;3.50;99.90;;;;;;5014356;28;20049;-87
2022/02/02 00:05:53;;;;;;;2.33;1.50;;;3.60;99.90;;;;;;4995174;28;20026;-87
2022/02/02 00:08:31;;;;;;;1.83;1.30;;;3.80;99.90;;;;;;4995723;28;20023;-87
2022/02/02 00:14:21;;;;;;;1.47;1.33;;;3.90;99.90;;;;;;5015227;28;20069;-87
2022/02/02 00:22:05;;;;;;;3.53;1.70;;;3.80;99.90;;;;;;5014682;28;20527;-87
2022/02/02 00:24:07;;;;;;;2.17;1.33;;;3.80;99.90;;;;;;5010071;28;20048;-87
2022/02/02 00:26:38;;;;;;;3.53;1.70;;;3.70;99.90;;;;;;5011399;28;20405;-87
2022/02/02 00:29:10;;;;;;;2.57;1.53;;;3.70;99.90;;;;;;5014539;28;20048;-88
2022/02/02 00:31:42;;;;;;;2.70;1.70;;;3.80;99.90;;;;;;5014348;28;20798;-87
2022/02/02 00:34:12;;;;;;;3.57;1.67;;;3.80;99.90;;;;;;5013976;28;20041;-87
2022/02/02 00:36:49;;;;;;;8.37;2.43;;;3.80;99.90;;;;;;5014301;28;20033;-87
2022/02/02 00:39:15;;;;;;;3.10;1.93;;;3.90;99.90;;;;;;5013462;28;20049;-87
2022/02/02 00:41:40;;;;;;;2.23;1.70;;;3.90;99.90;;;;;;5013166;28;20058;-87
2022/02/02 00:44:06;;;;;;;5.37;2.40;;;3.70;99.90;;;;;;5013605;28;20518;-87
2022/02/02 00:46:32;;;;;;;5.27;2.40;;;3.70;99.90;;;;;;5013562;28;20026;-87
2022/02/02 00:49:01;;;;;;;3.70;2.10;;;3.70;99.90;;;;;;4995685;28;20030;-86
2022/02/02 00:51:36;;;;;;;3.57;2.30;;;3.50;99.90;;;;;;5013444;28;20029;-85
2022/02/02 00:54:02;;;;;;;2.60;1.80;;;3.50;99.90;;;;;;5011797;28;20113;-86
2022/02/02 00:56:28;;;;;;;3.20;2.00;;;3.50;99.90;;;;;;5012037;28;20034;-85
2022/02/02 00:58:54;;;;;;;2.57;2.13;;;3.60;99.90;;;;;;5013667;28;20463;-86
2022/02/02 01:01:19;;;;;;;2.93;2.13;;;3.70;99.90;;;;;;5013704;28;20108;-86
2022/02/02 01:03:45;;;;;;;4.07;2.13;;;3.60;99.90;;;;;;5012806;28;20088;-86
2022/02/02 01:06:14;;;;;;;3.93;2.40;;;3.60;99.90;;;;;;5013505;28;20026;-86
2022/02/02 01:29:46;;;;;;;1.70;1.50;;;3.60;99.90;;;;;;4993318;28;20022;-86
2022/02/02 01:32:12;;;;;;;1.67;1.23;;;3.60;99.90;;;;;;5008933;28;20027;-87
2022/02/02 01:34:37;;;;;;;1.60;1.20;;;3.60;99.90;;;;;;4993266;28;20403;-86
2022/02/02 01:37:03;;;;;;;2.40;1.50;;;3.60;99.90;;;;;;4993793;28;20081;-87
2022/02/02 01:39:30;;;;;;;3.27;1.30;;;3.50;99.90;;;;;;4993564;28;20040;-86
2022/02/02 01:41:58;;;;;;;1.40;1.30;;;3.50;99.90;;;;;;4993704;28;20022;-86
2022/02/02 01:44:35;;;;;;;2.80;1.30;;;3.60;99.90;;;;;;5011785;28;20034;-86
2022/02/02 01:47:03;;;;;;;1.73;1.30;;;3.70;99.90;;;;;;5012774;28;20053;-86
2022/02/02 01:52:40;;;;;;;2.57;1.63;;;3.60;99.90;;;;;;5015030;28;20030;-87
2022/02/02 01:55:07;;;;;;;1.73;1.30;;;3.60;99.90;;;;;;5003172;28;20024;-87
2022/02/02 02:00:18;;;;;;;2.17;1.63;;;3.70;99.90;;;;;;5016948;28;20033;-86
2022/02/02 02:02:44;;;;;;;1.63;1.30;;;3.70;99.90;;;;;;5016052;28;20112;-86
2022/02/02 02:05:10;;;;;;;2.23;1.40;;;3.60;99.90;;;;;;5015055;28;20475;-87
2022/02/02 02:07:36;;;;;;;1.77;1.50;;;3.70;99.90;;;;;;5013948;28;20038;-86
2022/02/02 02:10:03;;;;;;;3.50;1.30;;;3.80;99.90;;;;;;5015150;28;20026;-87
2022/02/02 02:12:52;;;;;;;1.87;1.40;;;3.70;99.90;;;;;;5014679;28;20125;-86
2022/02/02 02:15:18;;;;;;;2.70;1.50;;;3.80;99.90;;;;;;5015787;28;20084;-86
2022/02/02 02:17:44;;;;;;;2.17;1.40;;;3.90;99.90;;;;;;5015459;28;20109;-86
2022/02/02 02:20:11;;;;;;;1.67;1.27;;;3.80;99.90;;;;;;5014330;28;20061;-87
2022/02/02 02:22:40;;;;;;;1.70;1.30;;;3.90;99.90;;;;;;5015140;28;20026;-87
2022/02/02 02:25:06;;;;;;;2.00;1.50;;;3.90;99.90;;;;;;5014487;28;20030;-87
2022/02/02 02:27:32;;;;;;;2.50;1.53;;;3.90;99.90;;;;;;5014792;28;20052;-87
2022/02/02 02:30:09;;;;;;;3.07;1.50;;;3.90;99.90;;;;;;5014930;28;20112;-87
2022/02/02 02:57:07;;;;;;;6.47;2.30;;;4.20;99.90;;;;;;5015428;28;20606;-87
2022/02/02 02:59:40;;;;;;;4.20;2.10;;;4.20;99.90;;;;;;5014629;28;20014;-86
2022/02/02 03:32:35;;;;;;;2.83;1.97;;;3.90;99.90;;;;;;5014789;28;20092;-85
2022/02/02 03:35:13;;;;;;;5.60;2.00;;;3.90;99.90;;;;;;5013730;28;20072;-84
2022/02/02 03:51:31;;;;;;;4.83;1.90;;;4.10;99.90;;;;;;5015315;28;20037;-87
2022/02/02 04:02:37;;;;;;;10.73;1.87;;;4.20;99.90;;;;;;5011620;28;20425;-86
2022/02/02 04:07:54;;;;;;;6.53;2.27;;;4.20;99.90;;;;;;5014245;28;20041;-86
2022/02/02 04:10:19;;;;;;;8.18;2.10;;;4.30;99.90;;;;;;5012370;28;20124;-86
2022/02/02 04:13:07;;;;;;;11.23;3.37;;;4.20;99.90;;;;;;5013961;28;20061;-86
2022/02/02 04:16:54;;;;;;;7.77;2.53;;;4.20;99.90;;;;;;5013151;28;20048;-86
2022/02/02 04:37:38;;;;;;;6.17;2.43;;;4.10;99.90;;;;;;5013544;28;20033;-85
2022/02/02 05:07:04;;;;;;;6.27;2.03;;;4.00;99.90;;;;;;5013456;28;20030;-86
2022/02/02 05:17:26;;;;;;;6.37;2.30;;;4.00;99.90;;;;;;5013479;28;20073;-86
2022/02/02 05:41:31;;;;;;;5.33;1.67;;;4.00;99.90;;;;;;5010775;28;20025;-83
2022/02/02 05:51:49;;;;;;;3.45;1.90;;;4.00;99.90;;;;;;5013483;28;20169;-83
2022/02/02 05:54:15;;;;;;;3.67;1.60;;;4.00;99.90;;;;;;5004360;28;20463;-83
2022/02/02 05:56:46;;;;;;;5.40;2.17;;;4.00;99.90;;;;;;5011771;28;20466;-83
2022/02/02 05:59:12;;;;;;;4.17;2.00;;;4.10;99.90;;;;;;5003713;28;20090;-83
2022/02/02 06:01:49;;;;;;;5.23;2.50;;;4.10;99.90;;;;;;5012769;28;20025;-83
2022/02/02 06:04:19;;;;;;;3.97;2.50;;;4.00;99.90;;;;;;5012493;28;20077;-83
2022/02/02 06:06:47;;;;;;;6.07;2.80;;;4.00;99.90;;;;;;5012824;28;20395;-83
2022/02/02 06:09:13;;;;;;;5.07;2.23;;;3.90;99.90;;;;;;5012868;28;20026;-83
2022/02/02 06:11:40;;;;;;;5.87;2.97;;;3.90;99.90;;;;;;5011418;28;20379;-81
2022/02/02 06:14:06;;;;;;;6.00;2.70;;;4.00;99.90;;;;;;5009953;28;20030;-82
2022/02/02 06:16:32;;;;;;;10.27;3.10;;;4.00;99.90;;;;;;5010549;28;20414;-79
2022/02/02 06:19:01;;;;;;;5.93;2.80;;;4.00;99.90;;;;;;5012249;28;20026;-79
2022/02/02 06:21:32;;;;;;;6.63;3.40;;;4.00;99.90;;;;;;5011330;28;20025;-78
2022/02/02 06:24:12;;;;;;;7.07;3.10;;;4.00;99.90;;;;;;5012791;28;20032;-79
2022/02/02 06:26:40;;;;;;;8.90;3.67;;;4.30;99.90;;;;;;5007931;28;20102;-78
2022/02/02 06:29:11;;;;;;;10.57;3.93;;;4.30;99.90;;;;;;4997748;28;20041;-77
2022/02/02 06:31:39;;;;;;;9.70;3.40;;;4.30;99.90;;;;;;5012693;28;20068;-76
2022/02/02 06:34:07;;;;;;;8.83;3.80;;;4.40;99.90;;;;;;5012306;28;20022;-77
2022/02/02 06:36:36;;;;;;;11.00;3.20;;;4.50;99.90;;;;;;5012813;28;20080;-77
2022/02/02 06:39:12;;;;;;;14.63;4.20;;;4.50;99.90;;;;;;5015678;28;20475;-77
2022/02/02 06:41:38;;;;;;;9.80;3.53;;;4.50;99.90;;;;;;5016260;28;20392;-78
2022/02/02 06:44:05;;;;;;;16.20;3.63;;;4.40;99.90;;;;;;5016026;28;20059;-78
2022/02/02 06:46:33;;;;;;;12.83;3.50;;;4.40;99.90;;;;;;5015789;28;20047;-77
2022/02/02 06:49:01;;;;;;;11.37;3.83;;;4.30;99.90;;;;;;5015674;28;20030;-77
2022/02/02 06:54:21;;;;;;;15.80;4.17;;;4.40;99.90;;;;;;5015600;28;20080;-79
2022/02/02 06:57:09;;;;;;;16.40;3.20;;;4.30;99.90;;;;;;5014251;28;20476;-79
2022/02/02 07:10:39;;;;;;;15.50;3.57;;;4.30;99.90;;;;;;5014317;28;20112;-78
2022/02/02 07:13:34;;;;;;;17.07;2.97;;;4.40;99.90;;;;;;5014928;28;20530;-78
2022/02/02 07:16:06;;;;;;;13.57;2.70;;;4.40;99.90;;;;;;5014527;28;20069;-78
2022/02/02 07:29:19;;;;;;;12.47;3.03;;;4.30;99.90;;;;;;5015164;28;20032;-78
2022/02/02 07:35:12;;;;;;;14.20;2.67;;;4.30;99.90;;;;;;5008731;28;20052;-78
2022/02/02 07:38:04;;;;;;;;;;;4.40;99.90;;;;;;5011373;28;20116;-79
2022/02/02 07:40:30;;;;;;;11.97;2.80;;;4.30;99.90;;;;;;4997468;28;19995;-79
2022/02/02 07:43:01;;;;;;;10.73;2.53;;;4.20;99.90;;;;;;5009734;28;20042;-79
2022/02/02 07:45:30;;;;;;;13.27;2.80;;;4.20;99.90;;;;;;5014588;28;20033;-78
2022/02/02 07:48:07;;;;;;;8.03;2.30;;;4.10;99.90;;;;;;5014707;28;20061;-78
2022/02/02 07:50:35;;;;;;;9.27;2.47;;;4.10;99.90;;;;;;5013492;28;20045;-79
2022/02/02 07:53:11;;;;;;;15.67;3.23;;;4.10;99.90;;;;;;5014873;28;20375;-79
2022/02/02 07:55:40;;;;;;;8.70;2.60;;;4.10;99.90;;;;;;5010501;28;20037;-79
2022/02/02 07:58:07;;;;;;;9.10;2.80;;;4.20;99.90;;;;;;5014517;28;20497;-79
2022/02/02 08:00:35;;;;;;;14.30;3.47;;;4.30;99.90;;;;;;5013848;28;20022;-79
2022/02/02 08:05:28;;;;;;;14.97;4.13;;;4.30;99.90;;;;;;5012261;28;20021;-79
2022/02/02 08:10:26;;;;;;;13.07;3.60;;;4.50;99.90;;;;;;5014693;28;20068;-79
2022/02/02 08:12:59;;;;;;;14.97;3.70;;;4.50;99.90;;;;;;5014341;28;20022;-79
2022/02/02 08:15:30;;;;;;;16.37;4.10;;;4.60;99.90;;;;;;5009197;28;20442;-79
2022/02/02 08:17:56;;;;;;;17.30;3.43;;;4.60;99.90;;;;;;5014275;28;20026;-79
2022/02/02 08:20:23;;;;;;;18.23;3.17;;;4.70;99.90;;;;;;5014120;28;20057;-79
2022/02/02 08:22:48;;;;;;;15.63;3.50;;;4.70;99.90;;;;;;5014225;28;20378;-79
2022/02/02 08:25:24;;;;;;;16.17;3.43;;;4.70;99.90;;;;;;5012790;28;20030;-78
2022/02/02 08:27:51;;;;;;;22.20;4.13;;;4.60;99.90;;;;;;5011516;28;20028;-78
2022/02/02 08:30:18;;;;;;;21.50;4.00;;;4.70;99.90;;;;;;5014249;28;20108;-78
2022/02/02 08:32:50;;;;;;;21.50;3.77;;;4.80;99.90;;;;;;5013279;28;20033;-77
2022/02/02 08:35:19;;;;;;;17.90;3.30;;;4.80;99.90;;;;;;5013759;28;20030;-77
2022/02/02 08:37:48;;;;;;;20.77;3.83;;;4.80;99.90;;;;;;5013955;28;20026;-78
2022/02/02 08:40:53;;;;;;;20.37;3.80;;;4.80;99.90;;;;;;5013757;28;20026;-78
2022/02/02 08:43:20;;;;;;;14.20;3.00;;;4.90;99.90;;;;;;5010725;28;20088;-79
2022/02/02 08:45:49;;;;;;;14.57;2.90;;;4.90;99.90;;;;;;5011877;28;20026;-78
2022/02/02 08:48:21;;;;;;;17.00;3.83;;;5.00;99.90;;;;;;5013027;28;20374;-77
2022/02/02 08:51:01;;;;;;;15.33;3.53;;;5.20;99.90;;;;;;5013345;28;20042;-77
2022/02/02 08:53:59;;;;;;;16.67;3.43;;;5.50;99.90;;;;;;5012121;28;20026;-78
2022/02/02 08:56:35;;;;;;;20.10;4.27;;;5.70;99.90;;;;;;5012732;28;20030;-78
2022/02/02 08:59:39;;;;;;;20.70;4.27;;;5.70;99.90;;;;;;5013145;28;20029;-78
2022/02/02 09:01:53;;;;;;;17.30;3.50;;;5.80;99.90;;;;;;5012521;28;20034;-78
2022/02/02 09:07:04;;;;;;;16.27;3.30;;;5.60;99.90;;;;;;5011124;28;20080;-79
2022/02/02 09:09:52;;;;;;;11.43;3.47;;;5.50;99.90;;;;;;5013050;28;20037;-83
2022/02/02 09:33:55;;;;;;;19.17;3.97;;;5.70;99.90;;;;;;5005872;28;20382;-81
2022/02/02 09:36:25;;;;;;;21.97;3.60;;;5.70;99.90;;;;;;5006974;28;20036;-81
2022/02/02 09:38:53;;;;;;;16.77;3.63;;;5.70;99.90;;;;;;5008037;28;20073;-82
2022/02/02 09:44:00;;;;;;;16.87;4.50;;;5.90;99.90;;;;;;5008222;28;20040;-81
2022/02/02 09:46:34;;;;;;;18.40;3.43;;;5.90;99.90;;;;;;5006825;28;20124;-81
2022/02/02 09:49:04;;;;;;;16.75;4.05;;;5.90;99.90;;;;;;4997367;28;20026;-82
2022/02/02 09:51:38;;;;;;;17.63;3.53;;;5.90;99.90;;;;;;5003877;28;20109;-79
2022/02/02 09:54:12;;;;;;;15.17;3.20;;;6.00;99.90;;;;;;5012799;28;20494;-79
2022/02/02 09:59:32;;;;;;;20.67;4.37;;;5.90;99.90;;;;;;5012504;28;20366;-79
2022/02/02 10:07:55;;;;;;;16.83;3.63;;;5.90;99.90;;;;;;5012792;28;20101;-79
2022/02/02 10:15:31;;;;;;;17.67;4.43;;;5.70;99.90;;;;;;5016714;28;20037;-79
2022/02/02 10:18:10;;;;;;;21.60;4.60;;;5.70;99.90;;;;;;5016401;28;20021;-79
2022/02/02 10:20:36;;;;;;;17.33;4.60;;;5.70;99.90;;;;;;5016286;28;20079;-80
2022/02/02 10:23:03;;;;;;;17.63;3.53;;;5.60;99.90;;;;;;5016536;28;20021;-81
2022/02/02 10:25:38;;;;;;;22.77;3.90;;;5.70;99.90;;;;;;5016708;28;20041;-80
2022/02/02 10:28:11;;;;;;;;;;;5.60;99.90;;;;;;5016765;28;20022;-80
2022/02/02 10:30:40;;;;;;;14.43;3.30;;;5.70;99.90;;;;;;5014867;28;19906;-80
2022/02/02 10:33:11;;;;;;;15.93;3.90;;;5.80;99.90;;;;;;5016196;28;20025;-80
2022/02/02 10:35:42;;;;;;;18.83;4.43;;;5.90;99.90;;;;;;5015855;28;20465;-80
2022/02/02 10:38:14;;;;;;;19.33;4.57;;;6.10;99.90;;;;;;5016055;28;20034;-80
2022/02/02 10:40:53;;;;;;;17.07;4.30;;;6.20;99.90;;;;;;5016062;28;20014;-80
2022/02/02 10:43:25;;;;;;;18.47;3.80;;;6.20;99.90;;;;;;5014582;28;20058;-80
2022/02/02 10:45:50;;;;;;;14.10;3.47;;;6.30;99.90;;;;;;5015659;28;20506;-79
2022/02/02 10:48:40;;;;;;;19.23;4.43;;;6.30;99.90;;;;;;5015790;28;20097;-80
2022/02/02 10:51:12;;;;;;;16.33;3.57;;;6.20;99.90;;;;;;5014371;28;20375;-79
2022/02/02 10:53:59;;;;;;;23.87;3.97;;;6.30;99.90;;;;;;5015843;28;20467;-79
2022/02/02 10:57:06;;;;;;;20.03;4.17;;;6.40;99.90;;;;;;5016002;28;20040;-80
2022/02/02 11:07:15;;;;;;;17.43;4.37;;;6.10;99.90;;;;;;5015925;28;20029;-80
2022/02/02 11:09:48;;;;;;;19.63;3.63;;;5.90;99.90;;;;;;5015604;28;20609;-79
2022/02/02 11:12:20;;;;;;;12.93;3.57;;;5.90;99.90;;;;;;5015256;28;20352;-80
2022/02/02 11:15:04;;;;;;;21.27;4.53;;;6.00;99.90;;;;;;5015483;28;20408;-80
2022/02/02 11:17:33;;;;;;;21.73;3.80;;;6.00;99.90;;;;;;5015513;28;20018;-80
2022/02/02 11:20:03;;;;;;;16.07;3.50;;;6.10;99.90;;;;;;5015503;28;20026;-79
2022/02/02 11:22:31;;;;;;;15.53;3.77;;;6.10;99.90;;;;;;5015500;28;20025;-79
2022/02/02 11:25:03;;;;;;;23.20;4.37;;;6.10;99.90;;;;;;5015170;28;20103;-79
2022/02/02 11:27:36;;;;;;;20.97;4.60;;;6.10;99.90;;;;;;5015230;28;20104;-80
2022/02/02 11:30:29;;;;;;;15.97;4.60;;;6.10;99.90;;;;;;5015262;28;20037;-80
2022/02/02 11:32:56;;;;;;;18.23;4.37;;;6.20;99.90;;;;;;5014957;28;20026;-80
2022/02/02 11:35:58;;;;;;;22.37;5.20;;;6.20;99.90;;;;;;5015062;28;20026;-79
2022/02/02 11:38:25;;;;;;;16.77;4.03;;;6.20;99.90;;;;;;5014745;28;20072;-78
2022/02/02 11:41:08;;;;;;;20.37;4.10;;;6.30;99.90;;;;;;5015248;28;20025;-79
2022/02/02 11:46:52;;;;;;;24.40;5.53;;;6.40;99.90;;;;;;5015634;28;20178;-79
2022/02/02 11:49:33;;;;;;;21.17;4.67;;;6.50;99.90;;;;;;5014963;28;20022;-78
2022/02/02 11:52:03;;;;;;;18.73;4.30;;;6.50;99.90;;;;;;5015114;28;20080;-79
2022/02/02 11:54:31;;;;;;;15.77;4.90;;;6.50;99.90;;;;;;5014661;28;20026;-79
2022/02/02 11:57:01;;;;;;;17.43;5.47;;;6.50;99.90;;;;;;5014641;28;20022;-79
2022/02/02 11:59:57;;;;;;;16.03;3.53;;;6.40;99.90;;;;;;5015052;28;20078;-78
2022/02/02 12:02:38;;;;;;;12.45;3.17;;;6.40;99.90;;;;;;5013307;28;20422;-78
2022/02/02 12:08:15;;;;;;;12.47;3.20;;;6.60;99.90;;;;;;5014535;28;20109;-78
2022/02/02 12:35:56;;;;;;;15.10;3.70;;;6.90;99.90;;;;;;5014431;28;20037;-79
2022/02/02 12:47:28;;;;;;;8.37;2.60;;;8.40;99.90;;;;;;5013665;28;20383;-77
2022/02/02 12:50:03;;;;;;;13.70;3.70;;;8.40;99.90;;;;;;5013849;28;20029;-80
2022/02/02 12:58:12;;;;;;;17.93;3.43;;;7.60;99.90;;;;;;5003708;28;20089;-81
2022/02/02 13:00:51;;;;;;;13.73;3.00;;;7.50;99.90;;;;;;4997064;28;20466;-82
2022/02/02 13:03:17;;;;;;;17.23;3.60;;;7.30;99.90;;;;;;4993954;28;20455;-82
2022/02/02 13:05:45;;;;;;;15.67;3.37;;;7.10;99.90;;;;;;4995118;28;20022;-82
2022/02/02 13:08:11;;;;;;;17.27;3.93;;;7.10;99.90;;;;;;5012267;28;20094;-80
2022/02/02 13:10:38;;;;;;;15.03;4.50;;;7.10;99.90;;;;;;4997206;28;20028;-78
2022/02/02 13:13:10;;;;;;;21.40;4.17;;;7.00;99.90;;;;;;5007116;28;20033;-86
2022/02/02 13:16:14;;;;;;;17.57;4.20;;;6.80;99.90;;;;;;5007054;28;20026;-86
2022/02/02 13:18:45;;;;;;;20.43;4.73;;;6.70;99.90;;;;;;5006107;28;20137;-86
2022/02/02 13:21:23;;;;;;;20.37;4.37;;;6.60;99.90;;;;;;5008250;28;20502;-86
2022/02/02 13:26:33;;;;;;;21.43;4.40;;;6.60;99.90;;;;;;4995042;28;20026;-83
2022/02/02 13:29:23;;;;;;;12.97;3.87;;;6.50;99.90;;;;;;4992779;28;20018;-84
2022/02/02 13:32:00;;;;;;;18.73;4.53;;;6.60;99.90;;;;;;4991557;28;20386;-84
2022/02/02 13:35:39;;;;;;;17.43;5.03;;;6.60;99.90;;;;;;4991049;28;20027;-83
2022/02/02 13:43:40;;;;;;;17.43;3.73;;;6.60;99.90;;;;;;5004588;28;20414;-85
2022/02/02 13:49:09;;;;;;;19.30;4.67;;;6.70;99.90;;;;;;5016628;28;20041;-84
2022/02/02 13:51:55;;;;;;;16.63;3.87;;;6.70;99.90;;;;;;5016015;28;20053;-84
2022/02/02 13:54:36;;;;;;;19.37;4.73;;;6.80;99.90;;;;;;5011843;28;20050;-84
2022/02/02 13:57:25;;;;;;;16.73;4.43;;;6.70;99.90;;;;;;5015967;28;20459;-83
2022/02/02 14:00:22;;;;;;;19.90;3.73;;;6.70;99.90;;;;;;5015520;28;20482;-83
2022/02/02 14:05:52;;;;;;;6.43;2.07;;;6.80;99.90;;;;;;5015563;28;20398;-81
2022/02/02 14:11:25;;;;;;;10.23;2.70;;;5.90;99.90;;;;;;4995787;28;20057;-83
2022/02/02 14:33:11;;;;;;;9.27;2.97;;;5.50;99.90;;;;;;5009644;28;20068;-85
2022/02/02 14:35:58;;;;;;;;;;;;;;;;;;;;;
2022/02/02 14:38:24;;;;;;;14.47;3.10;;;5.90;99.90;;;;;;5007687;28;20050;-81
2022/02/02 14:43:25;;;;;;;10.87;2.80;;;6.30;99.90;;;;;;5011877;28;20030;-81
2022/02/02 14:45:55;;;;;;;10.63;2.93;;;6.50;99.90;;;;;;5015108;28;20034;-80
2022/02/02 14:48:29;;;;;;;12.03;3.63;;;6.70;99.90;;;;;;5012066;28;20030;-83
2022/02/02 15:30:47;;;;;;;15.23;3.37;;;6.60;99.90;;;;;;5014164;28;20075;-85
2022/02/02 15:33:19;;;;;;;12.40;3.00;;;6.60;99.90;;;;;;5013673;28;20033;-79
2022/02/02 15:35:45;;;;;;;12.30;3.00;;;6.50;99.90;;;;;;5002009;28;20046;-79
2022/02/02 15:38:20;;;;;;;15.27;3.70;;;6.50;99.90;;;;;;4998367;28;20092;-80
2022/02/02 15:40:52;;;;;;;10.77;2.95;;;6.60;99.90;;;;;;5014928;28;20159;-80
2022/02/02 15:43:42;;;;;;;10.97;2.93;;;6.60;99.90;;;;;;5014616;28;20037;-80
2022/02/02 15:58:06;;;;;;;11.27;3.07;;;6.40;99.90;;;;;;5009631;28;20061;-86
2022/02/02 16:05:29;;;;;;;15.23;3.97;;;6.10;99.90;;;;;;5014543;28;20029;-81
2022/02/02 16:08:02;;;;;;;12.33;3.20;;;6.10;99.90;;;;;;5016205;28;20049;-82
2022/02/02 16:10:40;;;;;;;15.20;3.20;;;6.00;99.90;;;;;;5014605;28;20022;-79
2022/02/02 16:13:15;;;;;;;9.47;2.50;;;5.90;99.90;;;;;;5011439;28;20034;-78
2022/02/02 16:15:40;;;;;;;12.90;3.20;;;5.80;99.90;;;;;;5014029;28;20018;-79
2022/02/02 16:18:35;;;;;;;11.93;3.60;;;5.80;99.90;;;;;;5012914;28;20030;-78
2022/02/02 16:37:50;;;;;;;11.17;3.13;;;5.30;99.90;;;;;;4985132;28;20383;-78
2022/02/02 16:40:20;;;;;;;11.90;3.90;;;5.20;99.90;;;;;;4982828;28;20069;-78
2022/02/02 16:43:10;;;;;;;14.77;3.10;;;5.10;99.90;;;;;;4989514;28;20018;-78
2022/02/02 16:45:38;;;;;;;14.00;3.57;;;5.10;99.90;;;;;;4992131;28;20340;-78
2022/02/02 16:48:04;;;;;;;14.63;3.63;;;5.00;99.90;;;;;;4991305;28;20027;-78
2022/02/02 16:50:36;;;;;;;14.17;4.00;;;5.10;99.90;;;;;;4974625;28;20475;-78
2022/02/02 16:53:23;;;;;;;11.53;3.27;;;5.20;99.90;;;;;;4993064;28;20030;-81
2022/02/02 17:24:19;;;;;;;17.50;3.60;;;5.40;99.90;;;;;;4987499;28;20028;-80
2022/02/02 17:31:22;;;;;;;14.10;4.67;;;4.70;99.90;;;;;;4981831;28;20143;-81
2022/02/02 17:33:56;;;;;;;13.90;3.37;;;4.60;99.90;;;;;;4981027;28;20391;-80
2022/02/02 17:36:43;;;;;;;18.67;4.00;;;4.60;99.90;;;;;;4986886;28;20093;-81
2022/02/02 17:39:12;;;;;;;16.43;3.70;;;4.60;99.90;;;;;;4999129;28;20081;-80
2022/02/02 18:19:23;;;;;;;14.23;3.63;;;4.40;99.90;;;;;;5005275;28;20083;-81
2022/02/02 18:21:50;;;;;;;12.57;4.03;;;4.50;99.90;;;;;;5009285;28;20025;-81
2022/02/02 18:24:23;;;;;;;11.73;3.57;;;4.50;99.90;;;;;;5005984;28;20054;-80
2022/02/02 18:27:02;;;;;;;15.20;3.50;;;4.60;99.90;;;;;;4994852;28;20033;-80
2022/02/02 18:34:32;;;;;;;16.07;4.30;;;4.60;99.90;;;;;;5014064;28;20026;-78
2022/02/02 18:48:20;;;;;;;16.63;5.20;;;4.80;99.90;;;;;;4998164;28;20108;-83
2022/02/02 18:56:22;;;;;;;10.03;3.23;;;5.10;99.90;;;;;;5004860;28;20038;-82
2022/02/02 18:59:02;;;;;;;20.53;4.03;;;4.80;99.90;;;;;;5006675;28;20532;-82
2022/02/02 19:55:41;;;;;;;15.40;6.07;;;3.10;99.90;;;;;;5011297;28;20516;-81
2022/02/02 20:11:39;;;;;;;17.87;6.63;;;3.40;99.90;;;;;;4996868;28;20092;-85
2022/02/02 20:14:06;;;;;;;16.33;5.63;;;3.50;99.90;;;;;;4995021;28;20030;-85
2022/02/02 20:16:32;;;;;;;19.77;6.23;;;3.50;99.90;;;;;;4997914;28;20344;-85
2022/02/02 20:19:02;;;;;;;20.00;6.53;;;3.50;99.90;;;;;;5011332;28;20026;-86
2022/02/02 20:21:33;;;;;;;14.50;5.50;;;3.50;99.90;;;;;;5006927;28;20026;-86
2022/02/02 20:24:01;;;;;;;15.40;5.23;;;3.50;99.90;;;;;;5012901;28;20026;-86
2022/02/02 20:26:28;;;;;;;15.87;5.93;;;3.40;99.90;;;;;;4998701;28;20104;-86
2022/02/02 20:28:54;;;;;;;18.10;7.33;;;3.40;99.90;;;;;;5003889;28;20014;-86
2022/02/02 20:31:20;;;;;;;14.40;5.73;;;3.40;99.90;;;;;;5008732;28;20156;-86
2022/02/02 20:33:46;;;;;;;23.50;6.57;;;3.40;99.90;;;;;;5008274;28;20101;-86
2022/02/02 20:36:12;;;;;;;22.90;7.03;;;3.30;99.90;;;;;;5004973;28;20394;-86
2022/02/02 20:38:39;;;;;;;16.70;6.53;;;3.30;99.90;;;;;;5002382;28;20022;-85
2022/02/02 20:41:05;;;;;;;16.53;6.30;;;3.30;99.90;;;;;;4998230;28;20045;-86
2022/02/02 21:14:56;;;;;;;14.23;5.80;;;3.40;99.90;;;;;;5012474;28;20021;-78
2022/02/02 21:17:25;;;;;;;8.33;4.87;;;3.40;99.90;;;;;;5011826;28;20030;-79
2022/02/02 21:20:14;;;;;;;11.67;5.10;;;3.40;99.90;;;;;;5011621;28;20022;-79
2022/02/02 21:22:53;;;;;;;11.47;5.43;;;3.50;99.90;;;;;;5011757;28;20021;-78
2022/02/02 21:27:57;;;;;;;21.37;7.57;;;3.70;99.90;;;;;;5011829;28;20041;-78
2022/02/02 21:30:24;;;;;;;15.40;6.87;;;3.60;99.90;;;;;;5011767;28;20025;-78
2022/02/02 21:32:50;;;;;;;16.80;6.47;;;3.60;99.90;;;;;;5011826;28;20355;-79
2022/02/02 21:35:17;;;;;;;23.23;9.33;;;3.50;99.90;;;;;;5011445;28;20033;-78
2022/02/02 21:37:49;;;;;;;24.00;8.00;;;3.40;99.90;;;;;;5011490;28;20521;-78
2022/02/02 21:40:33;;;;;;;17.27;7.17;;;3.40;99.90;;;;;;5011590;28;20022;-78
2022/02/02 21:43:00;;;;;;;21.53;8.10;;;3.30;99.90;;;;;;4993918;28;20475;-78
2022/02/02 21:45:29;;;;;;;23.10;8.63;;;3.30;99.90;;;;;;5011536;28;20426;-78
2022/02/02 21:47:55;;;;;;;18.40;8.03;;;3.20;99.90;;;;;;5011575;28;20426;-79
2022/02/02 21:50:21;;;;;;;18.57;7.13;;;3.10;99.90;;;;;;5011466;28;20029;-79
2022/02/02 21:52:48;;;;;;;16.50;7.17;;;3.10;99.90;;;;;;5011436;28;20022;-80
2022/02/02 21:55:14;;;;;;;14.27;6.43;;;3.00;99.90;;;;;;5012419;28;20041;-87
2022/02/02 21:57:40;;;;;;;13.37;5.87;;;3.00;99.90;;;;;;5012706;28;20022;-87
2022/02/02 22:00:09;;;;;;;13.30;6.50;;;2.90;99.90;;;;;;4995165;28;20033;-82
2022/02/02 22:02:36;;;;;;;16.33;6.77;;;2.90;99.90;;;;;;5012804;28;20025;-82
2022/02/02 22:05:04;;;;;;;11.60;5.97;;;2.80;99.90;;;;;;5012974;28;20050;-82
2022/02/02 22:07:30;;;;;;;12.00;5.27;;;2.80;99.90;;;;;;5011912;28;20064;-82
2022/02/02 22:09:58;;;;;;;13.60;5.77;;;2.70;99.90;;;;;;5014681;28;20113;-82
2022/02/02 22:12:24;;;;;;;12.33;5.57;;;2.70;99.90;;;;;;5016328;28;20026;-82
2022/02/02 22:14:51;;;;;;;12.43;5.17;;;2.60;99.90;;;;;;4998879;28;20478;-82
2022/02/02 22:17:18;;;;;;;13.47;5.87;;;2.60;99.90;;;;;;5016643;28;20414;-82
2022/02/02 22:19:44;;;;;;;16.57;5.50;;;2.50;99.90;;;;;;4999018;28;20080;-82
2022/02/02 22:22:10;;;;;;;12.57;5.67;;;2.50;99.90;;;;;;5016454;28;20018;-82
2022/02/02 22:24:38;;;;;;;15.70;5.83;;;2.40;99.90;;;;;;4999024;28;20026;-82
2022/02/02 22:27:04;;;;;;;14.80;6.80;;;2.40;99.90;;;;;;5016340;28;20022;-82
2022/02/02 22:29:31;;;;;;;13.87;5.50;;;2.40;99.90;;;;;;5016286;28;20018;-83
2022/02/02 22:31:56;;;;;;;14.03;6.00;;;2.40;99.90;;;;;;5016137;28;20022;-82
2022/02/02 22:34:22;;;;;;;16.37;5.53;;;2.40;99.90;;;;;;5016046;28;20030;-82
2022/02/02 22:36:50;;;;;;;19.17;6.73;;;2.40;99.90;;;;;;5016140;28;20394;-81
2022/02/02 22:39:15;;;;;;;17.53;6.03;;;2.40;99.90;;;;;;5016254;28;20112;-81
2022/02/02 22:41:41;;;;;;;10.67;5.70;;;2.50;99.90;;;;;;5016197;28;20018;-81
2022/02/02 22:44:11;;;;;;;13.87;5.70;;;2.50;99.90;;;;;;4998541;28;20247;-81
2022/02/02 22:46:37;;;;;;;17.87;6.00;;;2.50;99.90;;;;;;5016003;28;20026;-81
2022/02/02 22:49:04;;;;;;;16.87;5.67;;;2.60;99.90;;;;;;5016114;28;20044;-81
2022/02/02 22:51:31;;;;;;;16.10;5.77;;;2.60;99.90;;;;;;5015953;28;20018;-80
2022/02/02 22:53:58;;;;;;;10.93;5.53;;;2.70;99.90;;;;;;5015672;28;20049;-80
2022/02/02 22:56:24;;;;;;;10.23;5.23;;;2.70;99.90;;;;;;5015787;28;20471;-81
2022/02/02 22:58:50;;;;;;;10.63;5.53;;;2.80;99.90;;;;;;5016101;28;20105;-81
2022/02/02 23:01:18;;;;;;;14.27;5.73;;;2.80;99.90;;;;;;4998406;28;20036;-81
2022/02/02 23:03:44;;;;;;;12.57;5.83;;;2.90;99.90;;;;;;5015762;28;20030;-82
2022/02/02 23:06:10;;;;;;;11.50;5.60;;;2.90;99.90;;;;;;5015651;28;20030;-81
2022/02/02 23:08:37;;;;;;;9.40;5.50;;;2.90;99.90;;;;;;5015422;28;20053;-81
2022/02/02 23:11:03;;;;;;;12.87;5.63;;;3.00;99.90;;;;;;5015459;28;20053;-81
2022/02/02 23:13:29;;;;;;;9.07;5.07;;;3.00;99.90;;;;;;5015360;28;20018;-81
2022/02/02 23:18:23;;;;;;;14.57;6.77;;;2.90;99.90;;;;;;5015639;28;20336;-81
2022/02/02 23:20:54;;;;;;;10.83;5.80;;;2.90;99.90;;;;;;5014838;28;20018;-81
2022/02/02 23:23:23;;;;;;;10.27;5.63;;;2.80;99.90;;;;;;5015164;28;20022;-81
2022/02/02 23:25:49;;;;;;;14.57;6.33;;;2.80;99.90;;;;;;5015046;28;20388;-80
2022/02/02 23:28:21;;;;;;;10.87;6.20;;;2.80;99.90;;;;;;5015300;28;20026;-82
2022/02/02 23:30:47;;;;;;;14.37;6.83;;;2.80;99.90;;;;;;5014946;28;20096;-82
2022/02/02 23:33:12;;;;;;;11.73;6.23;;;2.80;99.90;;;;;;5014820;28;20033;-82
2022/02/02 23:35:43;;;;;;;12.47;6.50;;;2.70;99.90;;;;;;5014722;28;20033;-82
2022/02/02 23:38:10;;;;;;;9.63;5.77;;;2.70;99.90;;;;;;4997326;28;20401;-82
2022/02/02 23:43:31;;;;;;;6.70;4.82;;;2.70;99.90;;;;;;4961509;28;20042;-82
2022/02/02 23:46:10;;;;;;;11.13;5.63;;;2.70;99.90;;;;;;5014770;28;20030;-82
2022/02/02 23:48:43;;;;;;;13.30;6.17;;;2.60;99.90;;;;;;5014522;28;20061;-82
2022/02/02 23:51:28;;;;;;;11.37;6.50;;;2.60;99.90;;;;;;4997192;28;20113;-82